Time;durP1;ratioP1;P1;durP2;ratioP2;P2;SDS_P1;SDS_P2;PMS_P1;PMS_P2;Temp;Humidity;BMP_temperature;BMP_pressure;BME280_temperature;BME280_humidity;BME280_pressure;Samples;Min_cycle;Max_cycle;Signal;HPM_P1;HPM_P2
2023/12/23 00:00:08;;;;;;;12.52;1.80;;;;;;;;;;5011043;28;20061;-59
2023/12/23 00:02:35;;;;;;;14.15;2.10;;;;;;;;;;5011316;28;20053;-59
2023/12/23 00:05:01;;;;;;;13.98;2.72;;;;;;;;;;5010036;28;20754;-59
2023/12/23 00:07:27;;;;;;;8.55;1.52;;;;;;;;;;5010526;28;21317;-59
2023/12/23 00:09:53;;;;;;;8.68;2.00;;;;;;;;;;5009606;28;20448;-59
2023/12/23 00:12:19;;;;;;;19.83;2.45;;;;;;;;;;5010564;28;20026;-59
2023/12/23 00:14:45;;;;;;;19.70;3.75;;;;;;;;;;5010158;28;20034;-59
2023/12/23 00:17:11;;;;;;;15.23;2.38;;;;;;;;;;5006652;28;20074;-59
2023/12/23 00:19:37;;;;;;;15.95;3.08;;;;;;;;;;5006718;28;20076;-59
2023/12/23 00:22:04;;;;;;;17.98;2.40;;;;;;;;;;5006974;28;20045;-59
2023/12/23 00:24:31;;;;;;;11.75;2.63;;;;;;;;;;5007817;28;20046;-59
2023/12/23 00:26:57;;;;;;;14.95;2.67;;;;;;;;;;5008214;28;20052;-59
2023/12/23 00:29:27;;;;;;;12.52;2.70;;;;;;;;;;5008549;28;20038;-59
2023/12/23 00:31:53;;;;;;;13.20;2.60;;;;;;;;;;5010505;28;20232;-59
2023/12/23 00:34:19;;;;;;;17.20;2.60;;;;;;;;;;5008448;28;20033;-59
2023/12/23 00:36:45;;;;;;;17.02;3.08;;;;;;;;;;5006277;28;20039;-59
2023/12/23 00:39:12;;;;;;;14.57;2.35;;;;;;;;;;5007890;28;20065;-59
2023/12/23 00:41:38;;;;;;;20.88;3.72;;;;;;;;;;5008156;28;21788;-59
2023/12/23 00:44:05;;;;;;;20.58;3.05;;;;;;;;;;5007435;28;20041;-59
2023/12/23 00:46:31;;;;;;;22.65;3.30;;;;;;;;;;5008235;28;20473;-59
2023/12/23 00:48:57;;;;;;;18.52;3.75;;;;;;;;;;5008336;28;20026;-59
2023/12/23 00:51:23;;;;;;;18.55;2.80;;;;;;;;;;5005786;28;21811;-59
2023/12/23 00:53:49;;;;;;;20.42;3.05;;;;;;;;;;5006787;28;20060;-59
2023/12/23 00:56:22;;;;;;;20.30;3.30;;;;;;;;;;5007935;28;20018;-59
2023/12/23 00:58:48;;;;;;;15.93;2.58;;;;;;;;;;5007128;28;20950;-59
2023/12/23 01:01:15;;;;;;;19.80;2.53;;;;;;;;;;5007726;28;20038;-59
2023/12/23 01:03:41;;;;;;;17.10;2.45;;;;;;;;;;5006925;28;20541;-59
2023/12/23 01:06:07;;;;;;;19.20;2.78;;;;;;;;;;5007339;28;20062;-59
2023/12/23 01:08:33;;;;;;;16.90;2.90;;;;;;;;;;5007192;28;20041;-59
2023/12/23 01:10:59;;;;;;;13.38;2.78;;;;;;;;;;5006476;28;20040;-59
2023/12/23 01:13:25;;;;;;;18.00;2.83;;;;;;;;;;5007936;28;20033;-59
2023/12/23 01:15:51;;;;;;;18.80;3.08;;;;;;;;;;5007302;28;20029;-59
2023/12/23 01:18:17;;;;;;;15.40;2.67;;;;;;;;;;5007587;28;20045;-59
2023/12/23 01:20:43;;;;;;;11.23;2.25;;;;;;;;;;5007610;28;20040;-59
2023/12/23 01:23:10;;;;;;;16.50;2.55;;;;;;;;;;5007481;28;20162;-58
2023/12/23 01:25:36;;;;;;;16.17;2.20;;;;;;;;;;5006726;28;20030;-59
2023/12/23 01:28:05;;;;;;;15.80;2.67;;;;;;;;;;5007682;28;20037;-59
2023/12/23 01:30:32;;;;;;;10.73;1.98;;;;;;;;;;5007191;28;20040;-59
2023/12/23 01:32:58;;;;;;;15.10;2.00;;;;;;;;;;5021664;28;20041;-59
2023/12/23 01:35:24;;;;;;;19.45;2.35;;;;;;;;;;5006581;28;20033;-59
2023/12/23 01:37:50;;;;;;;18.05;2.50;;;;;;;;;;5007425;28;20606;-59
2023/12/23 01:40:16;;;;;;;14.98;2.17;;;;;;;;;;5006132;28;20730;-59
2023/12/23 01:42:42;;;;;;;16.70;1.90;;;;;;;;;;5009847;28;20417;-59
2023/12/23 01:45:09;;;;;;;12.57;2.70;;;;;;;;;;5007020;28;20489;-59
2023/12/23 01:47:36;;;;;;;21.63;3.00;;;;;;;;;;5007114;28;20022;-59
2023/12/23 01:50:03;;;;;;;13.40;2.17;;;;;;;;;;5006136;28;20033;-59
2023/12/23 01:52:30;;;;;;;13.85;2.47;;;;;;;;;;5007645;28;20083;-59
2023/12/23 01:54:56;;;;;;;14.18;2.72;;;;;;;;;;5006727;28;20041;-59
2023/12/23 01:57:23;;;;;;;11.35;2.35;;;;;;;;;;5018441;28;20671;-59
2023/12/23 01:59:49;;;;;;;12.10;1.83;;;;;;;;;;5006641;28;20084;-59
2023/12/23 02:02:16;;;;;;;14.32;2.50;;;;;;;;;;5005655;28;20145;-59
2023/12/23 02:04:42;;;;;;;11.48;3.20;;;;;;;;;;5007041;28;20030;-58
2023/12/23 02:07:09;;;;;;;14.90;2.50;;;;;;;;;;5007225;28;20769;-59
2023/12/23 02:09:35;;;;;;;15.93;2.28;;;;;;;;;;5006216;28;20033;-59
2023/12/23 02:12:07;;;;;;;13.38;2.17;;;;;;;;;;5006909;28;20022;-58
2023/12/23 02:14:33;;;;;;;12.55;2.30;;;;;;;;;;5005859;28;20017;-59
2023/12/23 02:16:59;;;;;;;11.98;2.10;;;;;;;;;;5005857;28;20021;-59
2023/12/23 02:19:25;;;;;;;14.15;2.72;;;;;;;;;;5006464;28;20040;-59
2023/12/23 02:21:51;;;;;;;16.15;2.60;;;;;;;;;;5006757;28;20059;-59
2023/12/23 02:24:17;;;;;;;16.20;2.72;;;;;;;;;;5005472;28;20026;-59
2023/12/23 02:26:45;;;;;;;21.80;3.55;;;;;;;;;;5006754;28;20030;-59
2023/12/23 02:29:11;;;;;;;13.15;1.80;;;;;;;;;;5006198;28;20036;-59
2023/12/23 02:31:37;;;;;;;16.42;2.13;;;;;;;;;;5005239;28;20552;-59
2023/12/23 02:34:03;;;;;;;15.18;1.95;;;;;;;;;;5006454;28;20037;-59
2023/12/23 02:36:30;;;;;;;9.40;2.25;;;;;;;;;;5005169;28;20037;-59
2023/12/23 02:38:56;;;;;;;13.25;1.83;;;;;;;;;;5005771;28;20040;-59
2023/12/23 02:41:22;;;;;;;11.85;1.80;;;;;;;;;;5006046;28;20420;-59
2023/12/23 02:43:48;;;;;;;12.30;2.05;;;;;;;;;;5005615;28;20144;-59
2023/12/23 02:46:14;;;;;;;12.30;1.92;;;;;;;;;;5005406;28;20037;-59
2023/12/23 02:48:40;;;;;;;16.38;2.03;;;;;;;;;;5005685;28;20113;-59
2023/12/23 02:51:06;;;;;;;11.50;1.95;;;;;;;;;;5005945;28;20048;-58
2023/12/23 02:53:32;;;;;;;15.45;1.58;;;;;;;;;;5006885;28;20049;-59
2023/12/23 02:55:59;;;;;;;11.93;2.13;;;;;;;;;;5005576;28;20111;-59
2023/12/23 02:58:25;;;;;;;12.48;2.10;;;;;;;;;;5006371;28;20052;-59
2023/12/23 03:00:51;;;;;;;15.18;2.08;;;;;;;;;;5005890;28;20049;-59
2023/12/23 03:03:17;;;;;;;10.48;1.70;;;;;;;;;;5003835;28;20114;-59
2023/12/23 03:05:43;;;;;;;9.65;1.65;;;;;;;;;;5005717;28;20037;-59
2023/12/23 03:08:09;;;;;;;16.42;2.45;;;;;;;;;;5005829;28;20495;-59
2023/12/23 03:10:36;;;;;;;16.23;2.22;;;;;;;;;;5005250;28;20034;-59
2023/12/23 03:13:03;;;;;;;14.77;2.40;;;;;;;;;;5005733;28;20466;-59
2023/12/23 03:15:29;;;;;;;10.68;2.22;;;;;;;;;;5006039;28;21085;-59
2023/12/23 03:17:55;;;;;;;11.63;1.73;;;;;;;;;;5006049;28;20056;-59
2023/12/23 03:20:22;;;;;;;11.48;1.90;;;;;;;;;;5005082;28;20034;-59
2023/12/23 03:22:48;;;;;;;9.55;1.92;;;;;;;;;;5006371;28;20037;-59
2023/12/23 03:25:14;;;;;;;12.98;1.50;;;;;;;;;;5005835;28;20033;-59
2023/12/23 03:27:40;;;;;;;6.82;1.45;;;;;;;;;;5006177;28;20022;-59
2023/12/23 03:30:07;;;;;;;10.38;1.23;;;;;;;;;;5004711;28;20037;-59
2023/12/23 03:32:33;;;;;;;10.05;1.70;;;;;;;;;;5005891;28;20041;-59
2023/12/23 03:34:59;;;;;;;7.43;1.15;;;;;;;;;;5005143;28;20034;-59
2023/12/23 03:37:25;;;;;;;9.38;1.27;;;;;;;;;;5005623;28;20037;-58
2023/12/23 03:39:51;;;;;;;7.68;1.08;;;;;;;;;;5006087;28;20030;-59
2023/12/23 03:42:17;;;;;;;8.27;1.20;;;;;;;;;;5005625;28;21777;-59
2023/12/23 03:44:43;;;;;;;9.70;1.38;;;;;;;;;;5005030;28;20037;-59
2023/12/23 03:47:09;;;;;;;7.40;1.30;;;;;;;;;;5004664;28;20675;-59
2023/12/23 03:49:35;;;;;;;7.78;1.40;;;;;;;;;;5005939;28;20029;-59
2023/12/23 03:52:01;;;;;;;7.07;1.38;;;;;;;;;;5007839;28;20045;-58
2023/12/23 03:54:27;;;;;;;5.93;1.27;;;;;;;;;;5009180;28;20036;-58
2023/12/23 03:56:53;;;;;;;9.57;1.00;;;;;;;;;;5009200;28;20061;-59
2023/12/23 03:59:19;;;;;;;5.47;1.05;;;;;;;;;;5008378;28;20516;-59
2023/12/23 04:01:46;;;;;;;15.50;2.30;;;;;;;;;;5009705;28;20080;-59
2023/12/23 04:04:12;;;;;;;10.93;1.55;;;;;;;;;;5009035;28;20022;-59
2023/12/23 04:06:38;;;;;;;8.52;1.40;;;;;;;;;;5009294;28;20102;-59
2023/12/23 04:09:04;;;;;;;8.88;2.20;;;;;;;;;;5008991;28;20104;-59
2023/12/23 04:11:30;;;;;;;11.93;1.13;;;;;;;;;;5008963;28;20065;-59
2023/12/23 04:13:56;;;;;;;8.77;1.30;;;;;;;;;;5007953;28;20029;-59
2023/12/23 04:16:22;;;;;;;8.95;1.10;;;;;;;;;;5008866;28;20033;-59
2023/12/23 04:18:48;;;;;;;8.60;1.17;;;;;;;;;;5009194;28;20121;-59
2023/12/23 04:21:14;;;;;;;12.05;2.28;;;;;;;;;;5008661;28;20089;-59
2023/12/23 04:23:40;;;;;;;11.75;1.83;;;;;;;;;;5007797;28;20044;-59
2023/12/23 04:26:06;;;;;;;4.95;1.00;;;;;;;;;;5008885;28;20029;-59
2023/12/23 04:28:33;;;;;;;10.88;1.58;;;;;;;;;;5008160;28;20026;-59
2023/12/23 04:30:59;;;;;;;8.95;1.40;;;;;;;;;;5008662;28;20032;-59
2023/12/23 04:33:25;;;;;;;10.13;1.30;;;;;;;;;;5009181;28;20037;-59
2023/12/23 04:35:51;;;;;;;10.60;1.20;;;;;;;;;;5008383;28;20115;-59
2023/12/23 04:38:17;;;;;;;9.48;1.33;;;;;;;;;;5008541;28;20512;-59
2023/12/23 04:40:43;;;;;;;14.48;1.80;;;;;;;;;;5007448;28;20037;-59
2023/12/23 04:43:09;;;;;;;8.80;1.35;;;;;;;;;;5008044;28;20091;-59
2023/12/23 04:45:35;;;;;;;7.55;1.88;;;;;;;;;;5007999;28;20073;-59
2023/12/23 04:48:01;;;;;;;7.40;1.58;;;;;;;;;;5008546;28;20018;-59
2023/12/23 04:50:27;;;;;;;10.35;1.65;;;;;;;;;;5007895;28;20034;-59
2023/12/23 04:52:53;;;;;;;6.38;1.75;;;;;;;;;;5007663;28;20111;-59
2023/12/23 04:55:19;;;;;;;12.25;1.98;;;;;;;;;;5007382;28;20041;-59
2023/12/23 04:57:46;;;;;;;7.20;1.58;;;;;;;;;;5006912;28;20037;-59
2023/12/23 05:00:12;;;;;;;8.52;1.55;;;;;;;;;;5007969;28;20074;-59
2023/12/23 05:02:38;;;;;;;6.18;1.35;;;;;;;;;;5006711;28;20052;-59
2023/12/23 05:05:04;;;;;;;8.38;1.60;;;;;;;;;;5008643;28;20033;-59
2023/12/23 05:07:30;;;;;;;7.88;1.17;;;;;;;;;;5008159;28;20555;-59
2023/12/23 05:09:56;;;;;;;7.10;1.20;;;;;;;;;;5006963;28;20535;-59
2023/12/23 05:12:22;;;;;;;5.68;1.38;;;;;;;;;;5007020;28;20037;-59
2023/12/23 05:14:50;;;;;;;9.13;1.38;;;;;;;;;;5007547;28;20044;-59
2023/12/23 05:17:16;;;;;;;9.90;1.35;;;;;;;;;;5007461;28;20405;-59
2023/12/23 05:19:42;;;;;;;10.30;1.42;;;;;;;;;;5007128;28;20034;-59
2023/12/23 05:22:08;;;;;;;7.90;1.50;;;;;;;;;;5008164;28;20041;-59
2023/12/23 05:24:37;;;;;;;7.22;1.60;;;;;;;;;;5008090;28;20038;-59
2023/12/23 05:27:04;;;;;;;5.05;0.77;;;;;;;;;;5007518;28;20138;-58
2023/12/23 05:29:30;;;;;;;8.88;1.27;;;;;;;;;;5006879;28;20025;-59
2023/12/23 05:31:56;;;;;;;7.57;1.40;;;;;;;;;;5007417;28;20045;-58
2023/12/23 05:34:22;;;;;;;9.75;1.40;;;;;;;;;;5007559;28;20034;-58
2023/12/23 05:36:48;;;;;;;9.73;1.50;;;;;;;;;;5007505;28;20116;-59
2023/12/23 05:39:14;;;;;;;6.05;1.40;;;;;;;;;;5007441;28;20041;-59
2023/12/23 05:41:40;;;;;;;8.20;1.10;;;;;;;;;;5006800;28;21847;-59
2023/12/23 05:44:08;;;;;;;5.70;1.10;;;;;;;;;;5007022;28;20076;-59
2023/12/23 05:46:34;;;;;;;4.13;1.13;;;;;;;;;;5006660;28;20779;-58
2023/12/23 05:49:00;;;;;;;7.85;1.27;;;;;;;;;;5006440;28;20095;-58
2023/12/23 05:51:26;;;;;;;8.23;1.00;;;;;;;;;;5007551;28;20029;-58
2023/12/23 05:53:52;;;;;;;5.10;1.58;;;;;;;;;;5007654;28;20041;-58
2023/12/23 05:56:18;;;;;;;7.15;1.13;;;;;;;;;;5006604;28;20022;-59
2023/12/23 05:58:44;;;;;;;8.35;1.48;;;;;;;;;;5007400;28;20053;-59
2023/12/23 06:01:10;;;;;;;7.30;1.25;;;;;;;;;;5006926;28;20033;-59
2023/12/23 06:03:36;;;;;;;6.18;1.00;;;;;;;;;;5006089;28;20481;-59
2023/12/23 06:06:04;;;;;;;4.35;1.38;;;;;;;;;;5005662;28;20541;-59
2023/12/23 06:08:30;;;;;;;5.78;1.80;;;;;;;;;;5007474;28;20189;-58
2023/12/23 06:10:56;;;;;;;5.85;1.00;;;;;;;;;;5021421;28;20029;-58
2023/12/23 06:13:23;;;;;;;6.22;1.40;;;;;;;;;;5006818;28;20057;-59
2023/12/23 06:15:49;;;;;;;5.18;1.33;;;;;;;;;;5006391;28;20037;-58
2023/12/23 06:18:15;;;;;;;2.97;0.65;;;;;;;;;;5005701;28;20045;-58
2023/12/23 06:20:41;;;;;;;7.35;1.00;;;;;;;;;;5006405;28;20045;-59
2023/12/23 06:23:07;;;;;;;4.30;0.60;;;;;;;;;;5006336;28;20033;-58
2023/12/23 06:25:33;;;;;;;5.90;0.60;;;;;;;;;;5005793;28;20045;-58
2023/12/23 06:27:59;;;;;;;3.53;0.68;;;;;;;;;;5006291;28;20689;-59
2023/12/23 06:30:25;;;;;;;4.55;0.77;;;;;;;;;;5006517;28;20220;-58
2023/12/23 06:32:51;;;;;;;2.47;0.70;;;;;;;;;;5007062;28;20869;-58
2023/12/23 06:35:18;;;;;;;5.13;1.15;;;;;;;;;;5005362;28;20085;-58
2023/12/23 06:37:44;;;;;;;5.32;0.50;;;;;;;;;;5006413;28;20294;-59
2023/12/23 06:40:10;;;;;;;1.45;0.40;;;;;;;;;;5002897;28;20091;-59
2023/12/23 06:42:37;;;;;;;2.78;0.60;;;;;;;;;;5006762;28;20385;-58
2023/12/23 06:45:03;;;;;;;3.13;0.50;;;;;;;;;;5005823;28;20033;-58
2023/12/23 06:47:29;;;;;;;3.70;0.50;;;;;;;;;;5005854;28;20061;-58
2023/12/23 06:49:55;;;;;;;3.20;0.55;;;;;;;;;;5006661;28;20528;-58
2023/12/23 06:52:21;;;;;;;2.85;0.85;;;;;;;;;;5005281;28;20116;-58
2023/12/23 06:54:47;;;;;;;3.80;0.77;;;;;;;;;;5006770;28;20083;-58
2023/12/23 06:57:13;;;;;;;2.30;0.47;;;;;;;;;;5006463;28;20572;-59
2023/12/23 06:59:39;;;;;;;1.95;0.40;;;;;;;;;;5005952;28;20095;-59
2023/12/23 07:02:05;;;;;;;5.05;1.20;;;;;;;;;;5006022;28;20038;-59
2023/12/23 07:04:31;;;;;;;3.78;0.95;;;;;;;;;;5005828;28;20021;-59
2023/12/23 07:06:57;;;;;;;3.22;0.70;;;;;;;;;;5005959;28;20044;-58
2023/12/23 07:09:24;;;;;;;1.98;0.63;;;;;;;;;;5004820;28;20100;-58
2023/12/23 07:11:50;;;;;;;3.42;0.52;;;;;;;;;;5005760;28;21064;-59
2023/12/23 07:14:16;;;;;;;2.30;0.65;;;;;;;;;;5006534;28;20041;-58
2023/12/23 07:16:43;;;;;;;7.43;1.83;;;;;;;;;;5006421;28;20037;-59
2023/12/23 07:19:09;;;;;;;2.95;1.10;;;;;;;;;;5018272;28;21677;-58
2023/12/23 07:21:35;;;;;;;4.38;1.67;;;;;;;;;;5005941;28;20108;-59
2023/12/23 07:24:02;;;;;;;3.38;1.33;;;;;;;;;;5006109;28;20041;-58
2023/12/23 07:26:28;;;;;;;4.63;1.02;;;;;;;;;;5008210;28;20083;-58
2023/12/23 07:28:54;;;;;;;1.20;0.60;;;;;;;;;;5010652;28;21710;-59
2023/12/23 07:31:20;;;;;;;1.67;0.30;;;;;;;;;;5010485;28;21168;-59
2023/12/23 07:33:46;;;;;;;4.63;0.50;;;;;;;;;;5010171;28;20051;-59
2023/12/23 07:36:12;;;;;;;0.65;0.30;;;;;;;;;;5009802;28;20041;-59
2023/12/23 07:38:38;;;;;;;2.55;0.50;;;;;;;;;;5009628;28;20030;-59
2023/12/23 07:41:04;;;;;;;1.67;0.60;;;;;;;;;;5009569;28;20079;-59
2023/12/23 07:43:30;;;;;;;1.45;0.20;;;;;;;;;;5009332;28;20041;-59
2023/12/23 07:45:56;;;;;;;2.00;0.30;;;;;;;;;;5009238;28;20038;-59
2023/12/23 07:48:22;;;;;;;1.48;0.38;;;;;;;;;;5009294;28;20033;-59
2023/12/23 07:50:48;;;;;;;1.90;0.60;;;;;;;;;;5009529;28;20025;-59
2023/12/23 07:53:14;;;;;;;0.50;0.30;;;;;;;;;;5009257;28;20134;-59
2023/12/23 07:55:40;;;;;;;2.05;0.20;;;;;;;;;;5008924;28;20211;-59
2023/12/23 07:58:07;;;;;;;3.70;0.52;;;;;;;;;;5008390;28;20036;-59
2023/12/23 08:00:33;;;;;;;2.28;0.75;;;;;;;;;;5009784;28;20076;-59
2023/12/23 08:02:59;;;;;;;3.10;1.27;;;;;;;;;;5009101;28;20135;-59
2023/12/23 08:05:25;;;;;;;3.53;1.00;;;;;;;;;;5008076;28;20039;-59
2023/12/23 08:07:51;;;;;;;3.08;0.80;;;;;;;;;;5009262;28;20068;-59
2023/12/23 08:10:17;;;;;;;1.67;0.52;;;;;;;;;;5021696;28;20818;-59
2023/12/23 08:12:44;;;;;;;1.52;0.60;;;;;;;;;;5008808;28;20419;-59
2023/12/23 08:15:10;;;;;;;1.60;0.55;;;;;;;;;;5008999;28;20049;-59
2023/12/23 08:17:36;;;;;;;2.38;0.70;;;;;;;;;;5009110;28;20047;-58
2023/12/23 08:20:02;;;;;;;1.90;0.77;;;;;;;;;;5008861;28;20141;-59
2023/12/23 08:22:28;;;;;;;1.85;0.65;;;;;;;;;;5009228;28;20034;-59
2023/12/23 08:24:54;;;;;;;0.90;0.45;;;;;;;;;;5008614;28;20034;-59
2023/12/23 08:27:20;;;;;;;1.80;0.50;;;;;;;;;;5009047;28;20026;-59
2023/12/23 08:29:46;;;;;;;1.75;0.57;;;;;;;;;;5008097;28;20028;-59
2023/12/23 08:32:13;;;;;;;1.60;0.47;;;;;;;;;;5008004;28;20085;-59
2023/12/23 08:34:39;;;;;;;2.33;0.60;;;;;;;;;;5007722;28;20029;-59
2023/12/23 08:37:05;;;;;;;1.30;0.50;;;;;;;;;;5007751;28;20037;-59
2023/12/23 08:39:31;;;;;;;0.57;0.32;;;;;;;;;;5007906;28;20033;-59
2023/12/23 08:41:57;;;;;;;2.63;1.20;;;;;;;;;;5008216;28;20033;-59
2023/12/23 08:44:23;;;;;;;1.33;0.60;;;;;;;;;;5008050;28;20037;-59
2023/12/23 08:46:49;;;;;;;1.65;0.60;;;;;;;;;;5008107;28;20072;-59
2023/12/23 08:49:15;;;;;;;2.03;0.90;;;;;;;;;;5007784;28;20037;-59
2023/12/23 08:51:41;;;;;;;3.92;1.17;;;;;;;;;;5007352;28;20037;-59
2023/12/23 08:54:07;;;;;;;3.83;1.50;;;;;;;;;;5008043;28;20064;-59
2023/12/23 08:56:33;;;;;;;3.42;1.92;;;;;;;;;;5007797;28;20029;-59
2023/12/23 08:58:59;;;;;;;2.15;1.20;;;;;;;;;;5007970;28;20046;-59
2023/12/23 09:01:25;;;;;;;3.70;1.50;;;;;;;;;;5007738;28;20037;-59
2023/12/23 09:03:51;;;;;;;3.63;1.42;;;;;;;;;;5006254;28;20033;-59
2023/12/23 09:06:17;;;;;;;3.55;1.20;;;;;;;;;;5007544;28;20523;-59
2023/12/23 09:08:44;;;;;;;2.67;1.02;;;;;;;;;;5008116;28;20038;-59
2023/12/23 09:11:10;;;;;;;3.20;1.30;;;;;;;;;;5007040;28;20195;-59
2023/12/23 09:13:37;;;;;;;2.63;1.20;;;;;;;;;;5007557;28;20033;-59
2023/12/23 09:16:04;;;;;;;2.38;1.20;;;;;;;;;;5008143;28;20030;-59
2023/12/23 09:18:31;;;;;;;2.63;1.30;;;;;;;;;;5007366;28;20045;-59
2023/12/23 09:20:57;;;;;;;1.85;0.90;;;;;;;;;;5006070;28;20089;-59
2023/12/23 09:23:23;;;;;;;1.35;0.82;;;;;;;;;;5007434;28;20037;-58
2023/12/23 09:25:50;;;;;;;1.77;0.90;;;;;;;;;;5006436;28;20045;-59
2023/12/23 09:28:17;;;;;;;1.83;1.05;;;;;;;;;;5007706;28;20030;-59
2023/12/23 09:30:43;;;;;;;2.83;0.90;;;;;;;;;;5007061;28;20767;-59
2023/12/23 09:33:10;;;;;;;1.63;1.00;;;;;;;;;;5006856;28;20037;-59
2023/12/23 09:35:36;;;;;;;3.65;0.93;;;;;;;;;;5006807;28;20038;-59
2023/12/23 09:38:02;;;;;;;2.30;1.00;;;;;;;;;;5006425;28;20045;-59
2023/12/23 09:40:28;;;;;;;2.22;1.00;;;;;;;;;;5007033;28;20037;-59
2023/12/23 09:42:54;;;;;;;2.55;1.10;;;;;;;;;;5007032;28;20041;-59
2023/12/23 09:45:21;;;;;;;2.90;1.05;;;;;;;;;;5007768;28;20569;-59
2023/12/23 09:47:48;;;;;;;3.03;1.15;;;;;;;;;;5006473;28;20033;-59
2023/12/23 09:50:14;;;;;;;2.85;1.02;;;;;;;;;;5005908;28;20034;-59
2023/12/23 09:52:40;;;;;;;3.45;1.23;;;;;;;;;;5006246;28;20057;-59
2023/12/23 09:55:09;;;;;;;2.15;1.20;;;;;;;;;;5006879;28;20084;-59
2023/12/23 09:57:36;;;;;;;2.78;1.10;;;;;;;;;;5005816;28;20030;-59
2023/12/23 10:00:03;;;;;;;2.10;0.95;;;;;;;;;;5007073;28;20080;-59
2023/12/23 10:02:29;;;;;;;2.65;0.93;;;;;;;;;;5005524;28;20722;-58
2023/12/23 10:04:55;;;;;;;1.85;0.60;;;;;;;;;;5006969;28;21120;-59
2023/12/23 10:07:21;;;;;;;2.83;0.80;;;;;;;;;;5006194;28;20029;-58
2023/12/23 10:09:51;;;;;;;2.80;0.60;;;;;;;;;;5006299;28;20029;-59
2023/12/23 10:12:17;;;;;;;0.93;0.60;;;;;;;;;;5005685;28;20060;-59
2023/12/23 10:14:44;;;;;;;0.57;0.30;;;;;;;;;;5005658;28;20084;-59
2023/12/23 10:17:10;;;;;;;1.83;0.60;;;;;;;;;;5004991;28;20038;-59
2023/12/23 10:19:37;;;;;;;1.38;0.52;;;;;;;;;;5005392;28;20033;-59
2023/12/23 10:22:03;;;;;;;0.25;0.20;;;;;;;;;;5005535;28;20103;-59
2023/12/23 10:24:29;;;;;;;1.40;0.30;;;;;;;;;;5004818;28;20375;-59
2023/12/23 10:26:56;;;;;;;1.15;0.30;;;;;;;;;;5005185;28;20497;-59
2023/12/23 10:29:22;;;;;;;1.27;0.50;;;;;;;;;;5004769;28;20395;-59
2023/12/23 10:31:50;;;;;;;0.30;0.20;;;;;;;;;;5004953;28;20129;-59
2023/12/23 10:34:18;;;;;;;0.30;0.22;;;;;;;;;;5005238;28;20025;-59
2023/12/23 10:36:44;;;;;;;1.05;0.43;;;;;;;;;;5006273;28;20270;-59
2023/12/23 10:39:17;;;;;;;0.77;0.30;;;;;;;;;;5004929;28;20481;-59
2023/12/23 10:41:46;;;;;;;0.90;0.30;;;;;;;;;;5004533;28;20009;-59
2023/12/23 10:44:12;;;;;;;1.02;0.30;;;;;;;;;;5005746;28;20025;-59
2023/12/23 10:46:38;;;;;;;2.20;0.50;;;;;;;;;;5005510;28;20033;-59
2023/12/23 10:49:06;;;;;;;1.23;0.43;;;;;;;;;;5009457;28;20036;-59
2023/12/23 10:51:32;;;;;;;2.80;1.42;;;;;;;;;;5004447;28;20040;-59
2023/12/23 10:53:59;;;;;;;1.25;0.60;;;;;;;;;;5005121;28;20036;-59
2023/12/23 10:56:26;;;;;;;0.47;0.40;;;;;;;;;;5006024;28;20041;-59
2023/12/23 10:58:52;;;;;;;1.90;0.80;;;;;;;;;;5006160;28;20488;-59
2023/12/23 11:01:20;;;;;;;1.35;0.60;;;;;;;;;;5003552;28;20030;-59
2023/12/23 11:03:47;;;;;;;1.80;0.65;;;;;;;;;;5005808;28;20071;-59
2023/12/23 11:06:14;;;;;;;1.63;0.70;;;;;;;;;;5006239;28;20107;-59
2023/12/23 11:08:41;;;;;;;2.72;0.77;;;;;;;;;;5006379;28;20469;-59
2023/12/23 11:11:07;;;;;;;1.70;0.90;;;;;;;;;;5006204;28;20075;-59
2023/12/23 11:13:33;;;;;;;1.83;0.90;;;;;;;;;;5005638;28;20099;-59
2023/12/23 11:16:00;;;;;;;1.83;0.75;;;;;;;;;;5005172;28;20037;-59
2023/12/23 11:18:27;;;;;;;1.80;0.65;;;;;;;;;;5005802;28;20037;-59
2023/12/23 11:20:53;;;;;;;1.30;0.60;;;;;;;;;;5006308;28;20029;-59
2023/12/23 11:23:36;;;;;;;1.40;0.70;;;;;;;;;;5005922;28;20029;-59
2023/12/23 11:26:02;;;;;;;;;;;;;;;;;;5006888;28;20040;-59
2023/12/23 11:28:30;;;;;;;1.02;0.65;;;;;;;;;;5005377;28;19921;-59
2023/12/23 11:30:56;;;;;;;1.27;0.63;;;;;;;;;;5005178;28;20032;-59
2023/12/23 11:33:23;;;;;;;0.77;0.50;;;;;;;;;;5005979;28;20075;-59
2023/12/23 11:35:51;;;;;;;0.60;0.45;;;;;;;;;;5005726;28;20083;-59
2023/12/23 11:38:17;;;;;;;1.10;0.60;;;;;;;;;;5006195;28;20067;-59
2023/12/23 11:40:44;;;;;;;2.70;0.90;;;;;;;;;;5005640;28;20133;-59
2023/12/23 11:43:10;;;;;;;0.60;0.38;;;;;;;;;;5005786;28;20657;-59
2023/12/23 11:45:38;;;;;;;0.30;0.25;;;;;;;;;;5005837;28;20042;-59
2023/12/23 11:48:07;;;;;;;1.33;0.50;;;;;;;;;;5005980;28;20029;-59
2023/12/23 11:50:33;;;;;;;1.48;0.80;;;;;;;;;;5005895;28;20022;-59
2023/12/23 11:52:59;;;;;;;2.63;1.05;;;;;;;;;;5005346;28;20029;-59
2023/12/23 11:55:25;;;;;;;1.33;0.70;;;;;;;;;;5006209;28;20119;-59
2023/12/23 11:57:51;;;;;;;1.50;0.90;;;;;;;;;;5005794;28;20125;-59
2023/12/23 12:00:18;;;;;;;2.55;1.15;;;;;;;;;;5005387;28;20516;-59
2023/12/23 12:02:45;;;;;;;2.80;1.10;;;;;;;;;;5005381;28;20064;-59
2023/12/23 12:05:12;;;;;;;3.10;1.45;;;;;;;;;;5005223;28;20051;-59
2023/12/23 12:07:38;;;;;;;2.63;1.40;;;;;;;;;;5004316;28;20025;-59
2023/12/23 12:10:04;;;;;;;2.80;1.30;;;;;;;;;;5005614;28;20029;-59
2023/12/23 12:12:30;;;;;;;2.33;1.27;;;;;;;;;;5008324;28;20830;-59
2023/12/23 12:14:57;;;;;;;1.90;0.95;;;;;;;;;;5009392;28;20116;-59
2023/12/23 12:17:26;;;;;;;1.98;0.85;;;;;;;;;;5007854;28;20056;-59
2023/12/23 12:19:52;;;;;;;1.10;0.70;;;;;;;;;;5008338;28;20087;-59
2023/12/23 12:22:18;;;;;;;2.08;0.95;;;;;;;;;;5008831;28;20068;-59
2023/12/23 12:24:45;;;;;;;1.83;0.80;;;;;;;;;;5008579;28;20113;-59
2023/12/23 12:27:11;;;;;;;1.77;0.95;;;;;;;;;;5008682;28;20588;-59
2023/12/23 12:29:38;;;;;;;2.60;1.00;;;;;;;;;;5009061;28;20030;-59
2023/12/23 12:32:04;;;;;;;2.03;1.08;;;;;;;;;;5008175;28;20060;-59
2023/12/23 12:34:30;;;;;;;2.45;1.08;;;;;;;;;;5009068;28;20041;-59
2023/12/23 12:36:57;;;;;;;3.03;1.10;;;;;;;;;;5008834;28;20365;-59
2023/12/23 12:39:23;;;;;;;1.80;0.90;;;;;;;;;;5008290;28;20109;-59
2023/12/23 12:41:50;;;;;;;2.55;1.20;;;;;;;;;;5007899;28;20037;-59
2023/12/23 12:44:16;;;;;;;3.92;1.40;;;;;;;;;;5007651;28;20489;-59
2023/12/23 12:46:44;;;;;;;3.28;1.52;;;;;;;;;;5007279;28;20030;-59
2023/12/23 12:49:11;;;;;;;3.75;1.40;;;;;;;;;;5007637;28;20025;-59
2023/12/23 12:51:37;;;;;;;3.83;1.60;;;;;;;;;;5007395;28;20034;-59
2023/12/23 12:54:04;;;;;;;3.78;1.38;;;;;;;;;;5006816;28;20030;-59
2023/12/23 12:56:31;;;;;;;3.30;1.60;;;;;;;;;;5007542;28;20043;-59
2023/12/23 12:58:57;;;;;;;2.95;1.48;;;;;;;;;;5007111;28;20182;-59
2023/12/23 13:01:24;;;;;;;2.47;1.27;;;;;;;;;;5003644;28;20111;-59
2023/12/23 13:03:51;;;;;;;2.70;1.23;;;;;;;;;;5007014;28;20041;-59
2023/12/23 13:06:17;;;;;;;2.45;1.25;;;;;;;;;;5007648;28;20041;-59
2023/12/23 13:08:43;;;;;;;2.15;1.27;;;;;;;;;;5007762;28;20668;-59
2023/12/23 13:11:09;;;;;;;2.50;1.23;;;;;;;;;;5007195;28;20028;-59
2023/12/23 13:13:36;;;;;;;2.17;1.20;;;;;;;;;;5006465;28;20030;-59
2023/12/23 13:16:03;;;;;;;2.30;1.27;;;;;;;;;;5007771;28;20096;-59
2023/12/23 13:18:29;;;;;;;2.85;1.35;;;;;;;;;;5005943;28;20219;-59
2023/12/23 13:20:55;;;;;;;2.83;1.35;;;;;;;;;;5006767;28;20033;-59
2023/12/23 13:23:22;;;;;;;2.45;1.27;;;;;;;;;;5006387;28;20044;-59
2023/12/23 13:25:48;;;;;;;4.63;1.30;;;;;;;;;;5007421;28;20030;-59
2023/12/23 13:28:14;;;;;;;1.92;1.10;;;;;;;;;;5006736;28;21755;-59
2023/12/23 13:30:40;;;;;;;2.05;1.23;;;;;;;;;;5007228;28;20129;-59
2023/12/23 13:33:07;;;;;;;4.03;1.40;;;;;;;;;;5004095;28;20791;-59
2023/12/23 13:35:33;;;;;;;3.95;1.38;;;;;;;;;;5005840;28;20034;-59
2023/12/23 13:38:00;;;;;;;4.68;1.75;;;;;;;;;;5006750;28;20607;-59
2023/12/23 13:40:26;;;;;;;8.82;2.03;;;;;;;;;;5006676;28;20041;-59
2023/12/23 13:42:52;;;;;;;10.77;2.50;;;;;;;;;;4999258;28;20029;-59
2023/12/23 13:45:18;;;;;;;12.50;2.40;;;;;;;;;;4994489;28;20029;-59
2023/12/23 13:47:44;;;;;;;16.13;2.80;;;;;;;;;;4992888;28;20033;-59
2023/12/23 13:50:10;;;;;;;22.05;3.03;;;;;;;;;;4999520;28;20037;-59
2023/12/23 13:52:39;;;;;;;23.98;3.67;;;;;;;;;;4997373;28;20029;-59
2023/12/23 13:55:06;;;;;;;25.52;3.95;;;;;;;;;;4998110;28;20049;-59
2023/12/23 13:57:32;;;;;;;20.38;4.65;;;;;;;;;;4998322;28;20045;-59
2023/12/23 13:59:58;;;;;;;23.92;4.35;;;;;;;;;;4998510;28;20057;-59
2023/12/23 14:02:24;;;;;;;28.33;4.00;;;;;;;;;;4997547;28;21047;-59
2023/12/23 14:04:50;;;;;;;34.72;5.43;;;;;;;;;;4997729;28;20496;-59
2023/12/23 14:07:16;;;;;;;29.92;4.47;;;;;;;;;;4995178;28;20557;-59
2023/12/23 14:09:42;;;;;;;24.38;3.85;;;;;;;;;;4997402;28;20600;-59
2023/12/23 14:12:08;;;;;;;25.27;3.95;;;;;;;;;;4996034;28;20845;-59
2023/12/23 14:14:35;;;;;;;22.00;4.35;;;;;;;;;;4997958;28;20095;-59
2023/12/23 14:17:01;;;;;;;24.67;3.40;;;;;;;;;;4999155;28;20037;-59
2023/12/23 14:19:27;;;;;;;26.30;3.80;;;;;;;;;;4997621;28;20036;-59
2023/12/23 14:21:54;;;;;;;24.60;3.47;;;;;;;;;;4998038;28;20046;-59
2023/12/23 14:24:20;;;;;;;19.05;3.67;;;;;;;;;;4998332;28;20045;-59
2023/12/23 14:26:46;;;;;;;26.98;4.18;;;;;;;;;;4997213;28;20149;-59
2023/12/23 14:29:12;;;;;;;21.95;3.80;;;;;;;;;;4997540;28;20044;-59
2023/12/23 14:31:39;;;;;;;29.52;5.28;;;;;;;;;;4997692;28;20029;-59